sensor_id;sensor_type;location;lat;lon;timestamp;temperature;humidity
33139;DHT22;19501;50.948;5.316;2023-07-02T00:02:25;16.80;99.90
33139;DHT22;19501;50.948;5.316;2023-07-02T00:04:51;16.80;99.90
33139;DHT22;19501;50.948;5.316;2023-07-02T00:07:17;16.80;99.90
33139;DHT22;19501;50.948;5.316;2023-07-02T00:09:42;16.60;99.90
33139;DHT22;19501;50.948;5.316;2023-07-02T00:12:08;16.60;99.90
33139;DHT22;19501;50.948;5.316;2023-07-02T00:14:34;16.70;99.90
33139;DHT22;19501;50.948;5.316;2023-07-02T00:17:02;16.70;99.90
33139;DHT22;19501;50.948;5.316;2023-07-02T00:19:29;16.60;99.90
33139;DHT22;19501;50.948;5.316;2023-07-02T00:21:55;16.60;99.90
33139;DHT22;19501;50.948;5.316;2023-07-02T00:24:21;16.70;99.90
33139;DHT22;19501;50.948;5.316;2023-07-02T00:26:46;16.70;99.90
33139;DHT22;19501;50.948;5.316;2023-07-02T00:29:12;16.60;99.90
33139;DHT22;19501;50.948;5.316;2023-07-02T00:31:37;16.50;99.90
33139;DHT22;19501;50.948;5.316;2023-07-02T00:34:03;16.60;99.90
33139;DHT22;19501;50.948;5.316;2023-07-02T00:36:30;16.70;99.90
33139;DHT22;19501;50.948;5.316;2023-07-02T00:38:57;16.70;99.90
33139;DHT22;19501;50.948;5.316;2023-07-02T00:41:23;16.70;99.90
33139;DHT22;19501;50.948;5.316;2023-07-02T00:43:51;16.60;99.90
33139;DHT22;19501;50.948;5.316;2023-07-02T00:46:20;16.60;99.90
33139;DHT22;19501;50.948;5.316;2023-07-02T00:48:51;16.70;99.90
33139;DHT22;19501;50.948;5.316;2023-07-02T00:51:22;16.70;99.90
33139;DHT22;19501;50.948;5.316;2023-07-02T00:53:50;16.60;99.90
33139;DHT22;19501;50.948;5.316;2023-07-02T00:56:16;16.60;99.90
33139;DHT22;19501;50.948;5.316;2023-07-02T00:58:47;16.50;99.90
33139;DHT22;19501;50.948;5.316;2023-07-02T01:01:21;16.40;99.90
33139;DHT22;19501;50.948;5.316;2023-07-02T01:04:07;16.50;99.90
33139;DHT22;19501;50.948;5.316;2023-07-02T01:06:38;16.50;99.90
33139;DHT22;19501;50.948;5.316;2023-07-02T01:09:07;16.60;99.90
33139;DHT22;19501;50.948;5.316;2023-07-02T01:14:08;16.60;99.90
33139;DHT22;19501;50.948;5.316;2023-07-02T01:16:37;16.50;99.90
33139;DHT22;19501;50.948;5.316;2023-07-02T01:19:11;16.60;99.90
33139;DHT22;19501;50.948;5.316;2023-07-02T01:21:37;16.80;99.90
33139;DHT22;19501;50.948;5.316;2023-07-02T01:24:06;16.70;99.90
33139;DHT22;19501;50.948;5.316;2023-07-02T01:26:32;16.70;99.90
33139;DHT22;19501;50.948;5.316;2023-07-02T01:29:00;16.60;99.90
33139;DHT22;19501;50.948;5.316;2023-07-02T01:31:25;16.50;99.90
33139;DHT22;19501;50.948;5.316;2023-07-02T01:33:52;16.50;99.90
33139;DHT22;19501;50.948;5.316;2023-07-02T01:36:18;16.40;99.90
33139;DHT22;19501;50.948;5.316;2023-07-02T01:38:43;16.40;99.90
33139;DHT22;19501;50.948;5.316;2023-07-02T01:41:09;16.30;99.90
33139;DHT22;19501;50.948;5.316;2023-07-02T01:43:34;16.30;99.90
33139;DHT22;19501;50.948;5.316;2023-07-02T01:46:00;16.20;99.90
33139;DHT22;19501;50.948;5.316;2023-07-02T01:48:27;16.20;99.90
33139;DHT22;19501;50.948;5.316;2023-07-02T01:50:55;16.30;99.90
33139;DHT22;19501;50.948;5.316;2023-07-02T01:53:23;16.30;99.90
33139;DHT22;19501;50.948;5.316;2023-07-02T01:55:48;16.40;99.90
33139;DHT22;19501;50.948;5.316;2023-07-02T01:58:14;16.30;99.90
33139;DHT22;19501;50.948;5.316;2023-07-02T02:00:40;16.20;99.90
33139;DHT22;19501;50.948;5.316;2023-07-02T02:03:05;16.10;99.90
33139;DHT22;19501;50.948;5.316;2023-07-02T02:05:31;16.10;99.90
33139;DHT22;19501;50.948;5.316;2023-07-02T02:07:57;16.10;99.90
33139;DHT22;19501;50.948;5.316;2023-07-02T02:10:24;16.00;99.90
33139;DHT22;19501;50.948;5.316;2023-07-02T02:12:50;16.10;99.90
33139;DHT22;19501;50.948;5.316;2023-07-02T02:15:16;16.10;99.90
33139;DHT22;19501;50.948;5.316;2023-07-02T02:17:41;16.20;99.90
33139;DHT22;19501;50.948;5.316;2023-07-02T02:20:07;16.20;99.90
33139;DHT22;19501;50.948;5.316;2023-07-02T02:22:33;16.20;99.90
33139;DHT22;19501;50.948;5.316;2023-07-02T02:24:59;16.20;99.90
33139;DHT22;19501;50.948;5.316;2023-07-02T02:27:25;16.30;99.90
33139;DHT22;19501;50.948;5.316;2023-07-02T02:29:50;16.30;99.90
33139;DHT22;19501;50.948;5.316;2023-07-02T02:32:16;16.30;99.90
33139;DHT22;19501;50.948;5.316;2023-07-02T02:34:45;16.30;99.90
33139;DHT22;19501;50.948;5.316;2023-07-02T02:37:10;16.30;99.90
33139;DHT22;19501;50.948;5.316;2023-07-02T02:39:36;16.30;99.90
33139;DHT22;19501;50.948;5.316;2023-07-02T02:42:01;16.30;99.90
33139;DHT22;19501;50.948;5.316;2023-07-02T02:44:27;16.10;99.90
33139;DHT22;19501;50.948;5.316;2023-07-02T02:46:53;16.20;99.90
33139;DHT22;19501;50.948;5.316;2023-07-02T02:49:18;16.30;99.90
33139;DHT22;19501;50.948;5.316;2023-07-02T02:51:44;16.40;99.90
33139;DHT22;19501;50.948;5.316;2023-07-02T02:54:09;16.40;99.90
33139;DHT22;19501;50.948;5.316;2023-07-02T02:56:35;16.40;99.90
33139;DHT22;19501;50.948;5.316;2023-07-02T02:59:01;16.40;99.90
33139;DHT22;19501;50.948;5.316;2023-07-02T03:01:26;16.30;99.90
33139;DHT22;19501;50.948;5.316;2023-07-02T03:03:58;16.30;99.90
33139;DHT22;19501;50.948;5.316;2023-07-02T03:06:24;16.30;99.90
33139;DHT22;19501;50.948;5.316;2023-07-02T03:08:52;16.30;99.90
33139;DHT22;19501;50.948;5.316;2023-07-02T03:11:18;16.30;99.90
33139;DHT22;19501;50.948;5.316;2023-07-02T03:13:43;16.30;99.90
33139;DHT22;19501;50.948;5.316;2023-07-02T03:16:09;16.20;99.90
33139;DHT22;19501;50.948;5.316;2023-07-02T03:18:34;16.20;99.90
33139;DHT22;19501;50.948;5.316;2023-07-02T03:21:00;16.20;99.90
33139;DHT22;19501;50.948;5.316;2023-07-02T03:23:28;16.30;99.90
33139;DHT22;19501;50.948;5.316;2023-07-02T03:25:54;16.30;99.90
33139;DHT22;19501;50.948;5.316;2023-07-02T03:28:19;16.30;99.90
33139;DHT22;19501;50.948;5.316;2023-07-02T03:30:45;16.30;99.90
33139;DHT22;19501;50.948;5.316;2023-07-02T03:33:11;16.30;99.90
33139;DHT22;19501;50.948;5.316;2023-07-02T03:35:36;16.20;99.90
33139;DHT22;19501;50.948;5.316;2023-07-02T03:38:04;16.10;99.90
33139;DHT22;19501;50.948;5.316;2023-07-02T03:40:29;16.00;99.90
33139;DHT22;19501;50.948;5.316;2023-07-02T03:42:55;16.10;99.90
33139;DHT22;19501;50.948;5.316;2023-07-02T03:45:20;16.10;99.90
33139;DHT22;19501;50.948;5.316;2023-07-02T03:47:46;16.20;99.90
33139;DHT22;19501;50.948;5.316;2023-07-02T03:50:14;16.20;99.90
33139;DHT22;19501;50.948;5.316;2023-07-02T03:52:39;16.00;99.90
33139;DHT22;19501;50.948;5.316;2023-07-02T03:55:08;16.00;99.90
33139;DHT22;19501;50.948;5.316;2023-07-02T03:57:33;16.10;99.90
33139;DHT22;19501;50.948;5.316;2023-07-02T03:59:59;16.20;99.90
33139;DHT22;19501;50.948;5.316;2023-07-02T04:02:24;16.20;99.90
33139;DHT22;19501;50.948;5.316;2023-07-02T04:04:50;16.10;99.90
33139;DHT22;19501;50.948;5.316;2023-07-02T04:07:16;16.10;99.90
33139;DHT22;19501;50.948;5.316;2023-07-02T04:09:42;16.00;99.90
33139;DHT22;19501;50.948;5.316;2023-07-02T04:12:10;16.00;99.90
33139;DHT22;19501;50.948;5.316;2023-07-02T04:14:40;15.90;99.90
33139;DHT22;19501;50.948;5.316;2023-07-02T04:17:06;16.10;99.90
33139;DHT22;19501;50.948;5.316;2023-07-02T04:19:32;16.10;99.90
33139;DHT22;19501;50.948;5.316;2023-07-02T04:21:57;16.10;99.90
33139;DHT22;19501;50.948;5.316;2023-07-02T04:24:23;16.00;99.90
33139;DHT22;19501;50.948;5.316;2023-07-02T04:26:48;16.10;99.90
33139;DHT22;19501;50.948;5.316;2023-07-02T04:29:14;15.90;99.90
33139;DHT22;19501;50.948;5.316;2023-07-02T04:31:42;15.90;99.90
33139;DHT22;19501;50.948;5.316;2023-07-02T04:34:08;16.00;99.90
33139;DHT22;19501;50.948;5.316;2023-07-02T04:36:33;16.00;99.90
33139;DHT22;19501;50.948;5.316;2023-07-02T04:38:59;15.90;99.90
33139;DHT22;19501;50.948;5.316;2023-07-02T04:41:25;15.70;99.90
33139;DHT22;19501;50.948;5.316;2023-07-02T04:43:51;15.70;99.90
33139;DHT22;19501;50.948;5.316;2023-07-02T04:46:17;15.70;99.90
33139;DHT22;19501;50.948;5.316;2023-07-02T04:48:43;15.80;99.90
33139;DHT22;19501;50.948;5.316;2023-07-02T04:51:09;15.90;99.90
33139;DHT22;19501;50.948;5.316;2023-07-02T04:53:34;15.90;99.90
33139;DHT22;19501;50.948;5.316;2023-07-02T04:56:00;15.90;99.90
33139;DHT22;19501;50.948;5.316;2023-07-02T04:58:26;16.00;99.90
33139;DHT22;19501;50.948;5.316;2023-07-02T05:00:52;16.00;99.90
33139;DHT22;19501;50.948;5.316;2023-07-02T05:03:18;15.90;99.90
33139;DHT22;19501;50.948;5.316;2023-07-02T05:05:43;15.90;99.90
33139;DHT22;19501;50.948;5.316;2023-07-02T05:08:09;16.10;99.90
33139;DHT22;19501;50.948;5.316;2023-07-02T05:10:35;16.00;99.90
33139;DHT22;19501;50.948;5.316;2023-07-02T05:13:01;16.20;99.90
33139;DHT22;19501;50.948;5.316;2023-07-02T05:15:27;16.30;99.90
33139;DHT22;19501;50.948;5.316;2023-07-02T05:17:52;16.20;99.90
33139;DHT22;19501;50.948;5.316;2023-07-02T05:20:18;16.10;99.90
33139;DHT22;19501;50.948;5.316;2023-07-02T05:22:44;16.20;99.90
33139;DHT22;19501;50.948;5.316;2023-07-02T05:25:09;16.20;99.90
33139;DHT22;19501;50.948;5.316;2023-07-02T05:27:35;16.30;99.90
33139;DHT22;19501;50.948;5.316;2023-07-02T05:30:01;16.50;99.90
33139;DHT22;19501;50.948;5.316;2023-07-02T05:32:26;16.60;99.90
33139;DHT22;19501;50.948;5.316;2023-07-02T05:34:52;16.50;99.90
33139;DHT22;19501;50.948;5.316;2023-07-02T05:37:18;16.40;99.90
33139;DHT22;19501;50.948;5.316;2023-07-02T05:39:43;16.30;99.90
33139;DHT22;19501;50.948;5.316;2023-07-02T05:42:09;16.30;99.90
33139;DHT22;19501;50.948;5.316;2023-07-02T05:44:34;16.30;99.90
33139;DHT22;19501;50.948;5.316;2023-07-02T05:47:00;16.40;99.90
33139;DHT22;19501;50.948;5.316;2023-07-02T05:49:26;16.40;99.90
33139;DHT22;19501;50.948;5.316;2023-07-02T05:51:52;16.30;99.90
33139;DHT22;19501;50.948;5.316;2023-07-02T05:54:18;16.30;99.90
33139;DHT22;19501;50.948;5.316;2023-07-02T05:56:43;16.20;99.90
33139;DHT22;19501;50.948;5.316;2023-07-02T05:59:09;16.20;99.90
33139;DHT22;19501;50.948;5.316;2023-07-02T06:01:35;16.40;99.90
33139;DHT22;19501;50.948;5.316;2023-07-02T06:04:01;16.40;99.90
33139;DHT22;19501;50.948;5.316;2023-07-02T06:06:27;16.50;99.90
33139;DHT22;19501;50.948;5.316;2023-07-02T06:08:53;16.60;99.90
33139;DHT22;19501;50.948;5.316;2023-07-02T06:11:18;16.60;99.90
33139;DHT22;19501;50.948;5.316;2023-07-02T06:13:44;16.60;99.90
33139;DHT22;19501;50.948;5.316;2023-07-02T06:16:09;16.50;99.90
33139;DHT22;19501;50.948;5.316;2023-07-02T06:18:35;16.50;99.90
33139;DHT22;19501;50.948;5.316;2023-07-02T06:21:01;16.70;99.90
33139;DHT22;19501;50.948;5.316;2023-07-02T06:23:26;16.80;99.90
33139;DHT22;19501;50.948;5.316;2023-07-02T06:25:52;16.80;99.90
33139;DHT22;19501;50.948;5.316;2023-07-02T06:28:27;16.70;99.90
33139;DHT22;19501;50.948;5.316;2023-07-02T06:30:55;16.70;99.90
33139;DHT22;19501;50.948;5.316;2023-07-02T06:33:21;17.00;99.90
33139;DHT22;19501;50.948;5.316;2023-07-02T06:35:46;17.20;99.90
33139;DHT22;19501;50.948;5.316;2023-07-02T06:38:12;17.20;99.90
33139;DHT22;19501;50.948;5.316;2023-07-02T06:40:38;17.10;99.90
33139;DHT22;19501;50.948;5.316;2023-07-02T06:43:04;16.90;99.90
33139;DHT22;19501;50.948;5.316;2023-07-02T06:45:30;16.70;99.90
33139;DHT22;19501;50.948;5.316;2023-07-02T06:47:55;16.80;99.90
33139;DHT22;19501;50.948;5.316;2023-07-02T06:50:21;16.90;99.90
33139;DHT22;19501;50.948;5.316;2023-07-02T06:52:48;17.10;99.90
33139;DHT22;19501;50.948;5.316;2023-07-02T06:55:13;17.40;99.90
33139;DHT22;19501;50.948;5.316;2023-07-02T06:57:45;17.60;99.90
33139;DHT22;19501;50.948;5.316;2023-07-02T07:00:13;17.90;99.90
33139;DHT22;19501;50.948;5.316;2023-07-02T07:02:39;18.20;99.90
33139;DHT22;19501;50.948;5.316;2023-07-02T07:05:05;18.00;99.90
33139;DHT22;19501;50.948;5.316;2023-07-02T07:07:31;18.10;99.90
33139;DHT22;19501;50.948;5.316;2023-07-02T07:09:57;18.20;99.90
33139;DHT22;19501;50.948;5.316;2023-07-02T07:12:22;18.30;99.90
33139;DHT22;19501;50.948;5.316;2023-07-02T07:14:48;18.30;99.90
33139;DHT22;19501;50.948;5.316;2023-07-02T07:17:13;18.40;99.90
33139;DHT22;19501;50.948;5.316;2023-07-02T07:19:39;18.20;99.90
33139;DHT22;19501;50.948;5.316;2023-07-02T07:22:05;18.20;99.90
33139;DHT22;19501;50.948;5.316;2023-07-02T07:24:32;17.90;99.90
33139;DHT22;19501;50.948;5.316;2023-07-02T07:26:58;17.80;99.90
33139;DHT22;19501;50.948;5.316;2023-07-02T07:29:26;17.80;99.90
33139;DHT22;19501;50.948;5.316;2023-07-02T07:31:51;18.00;99.90
33139;DHT22;19501;50.948;5.316;2023-07-02T07:34:17;18.10;99.90
33139;DHT22;19501;50.948;5.316;2023-07-02T07:36:42;18.10;99.90
33139;DHT22;19501;50.948;5.316;2023-07-02T07:39:08;18.30;99.90
33139;DHT22;19501;50.948;5.316;2023-07-02T07:41:34;18.30;99.90
33139;DHT22;19501;50.948;5.316;2023-07-02T07:44:00;18.40;99.90
33139;DHT22;19501;50.948;5.316;2023-07-02T07:46:27;18.50;99.90
33139;DHT22;19501;50.948;5.316;2023-07-02T07:48:52;18.70;99.90
33139;DHT22;19501;50.948;5.316;2023-07-02T07:51:18;18.30;99.90
33139;DHT22;19501;50.948;5.316;2023-07-02T07:53:43;18.30;99.90
33139;DHT22;19501;50.948;5.316;2023-07-02T07:56:09;18.10;99.90
33139;DHT22;19501;50.948;5.316;2023-07-02T07:58:35;18.10;99.90
33139;DHT22;19501;50.948;5.316;2023-07-02T08:01:00;18.20;99.90
33139;DHT22;19501;50.948;5.316;2023-07-02T08:03:26;18.40;99.90
33139;DHT22;19501;50.948;5.316;2023-07-02T08:05:51;18.30;99.90
33139;DHT22;19501;50.948;5.316;2023-07-02T08:08:17;18.30;99.90
33139;DHT22;19501;50.948;5.316;2023-07-02T08:10:43;18.40;99.90
33139;DHT22;19501;50.948;5.316;2023-07-02T08:13:08;18.40;99.90
33139;DHT22;19501;50.948;5.316;2023-07-02T08:15:34;18.50;99.90
33139;DHT22;19501;50.948;5.316;2023-07-02T08:18:00;18.60;99.90
33139;DHT22;19501;50.948;5.316;2023-07-02T08:20:26;18.80;99.90
33139;DHT22;19501;50.948;5.316;2023-07-02T08:22:52;19.00;99.90
33139;DHT22;19501;50.948;5.316;2023-07-02T08:25:18;18.90;99.90
33139;DHT22;19501;50.948;5.316;2023-07-02T08:27:44;19.00;99.90
33139;DHT22;19501;50.948;5.316;2023-07-02T08:30:10;19.30;99.90
33139;DHT22;19501;50.948;5.316;2023-07-02T08:32:38;19.60;99.90
33139;DHT22;19501;50.948;5.316;2023-07-02T08:35:04;19.90;99.90
33139;DHT22;19501;50.948;5.316;2023-07-02T08:37:29;20.00;99.90
33139;DHT22;19501;50.948;5.316;2023-07-02T08:39:55;19.80;99.90
33139;DHT22;19501;50.948;5.316;2023-07-02T08:42:21;19.80;99.90
33139;DHT22;19501;50.948;5.316;2023-07-02T08:44:47;19.60;99.90
33139;DHT22;19501;50.948;5.316;2023-07-02T08:47:13;19.50;99.90
33139;DHT22;19501;50.948;5.316;2023-07-02T08:49:39;19.70;99.90
33139;DHT22;19501;50.948;5.316;2023-07-02T08:52:05;19.70;99.90
33139;DHT22;19501;50.948;5.316;2023-07-02T08:54:31;19.60;99.90
33139;DHT22;19501;50.948;5.316;2023-07-02T08:56:57;19.50;99.90
33139;DHT22;19501;50.948;5.316;2023-07-02T08:59:23;19.70;99.90
33139;DHT22;19501;50.948;5.316;2023-07-02T09:01:50;19.60;99.90
33139;DHT22;19501;50.948;5.316;2023-07-02T09:04:24;19.70;99.90
33139;DHT22;19501;50.948;5.316;2023-07-02T09:07:13;19.70;99.90
33139;DHT22;19501;50.948;5.316;2023-07-02T09:09:48;19.50;99.90
33139;DHT22;19501;50.948;5.316;2023-07-02T09:12:26;19.80;99.90
33139;DHT22;19501;50.948;5.316;2023-07-02T09:17:33;20.30;99.90
33139;DHT22;19501;50.948;5.316;2023-07-02T09:20:00;20.50;99.90
33139;DHT22;19501;50.948;5.316;2023-07-02T09:22:26;20.70;99.90
33139;DHT22;19501;50.948;5.316;2023-07-02T09:24:53;20.80;99.90
33139;DHT22;19501;50.948;5.316;2023-07-02T09:27:20;20.70;99.90
33139;DHT22;19501;50.948;5.316;2023-07-02T09:29:50;20.60;99.90
33139;DHT22;19501;50.948;5.316;2023-07-02T09:32:25;20.70;99.90
33139;DHT22;19501;50.948;5.316;2023-07-02T09:34:55;20.90;99.90
33139;DHT22;19501;50.948;5.316;2023-07-02T09:37:23;20.80;99.30
33139;DHT22;19501;50.948;5.316;2023-07-02T09:39:53;20.80;99.90
33139;DHT22;19501;50.948;5.316;2023-07-02T09:42:20;20.80;98.20
33139;DHT22;19501;50.948;5.316;2023-07-02T09:44:46;21.00;97.10
33139;DHT22;19501;50.948;5.316;2023-07-02T09:47:14;21.20;97.10
33139;DHT22;19501;50.948;5.316;2023-07-02T09:49:53;21.40;96.80
33139;DHT22;19501;50.948;5.316;2023-07-02T09:52:19;21.20;96.40
33139;DHT22;19501;50.948;5.316;2023-07-02T09:54:45;21.10;95.00
33139;DHT22;19501;50.948;5.316;2023-07-02T09:57:11;21.10;96.30
33139;DHT22;19501;50.948;5.316;2023-07-02T09:59:38;21.00;97.10
33139;DHT22;19501;50.948;5.316;2023-07-02T10:02:04;21.30;96.20
33139;DHT22;19501;50.948;5.316;2023-07-02T10:04:46;21.20;94.90
33139;DHT22;19501;50.948;5.316;2023-07-02T10:07:12;21.30;97.00
33139;DHT22;19501;50.948;5.316;2023-07-02T10:09:41;21.60;94.80
33139;DHT22;19501;50.948;5.316;2023-07-02T10:14:43;22.30;95.00
33139;DHT22;19501;50.948;5.316;2023-07-02T10:17:32;22.40;94.50
33139;DHT22;19501;50.948;5.316;2023-07-02T10:20:00;22.30;94.50
33139;DHT22;19501;50.948;5.316;2023-07-02T10:22:45;22.10;94.60
33139;DHT22;19501;50.948;5.316;2023-07-02T10:25:11;21.90;95.30
33139;DHT22;19501;50.948;5.316;2023-07-02T10:27:41;21.60;94.80
33139;DHT22;19501;50.948;5.316;2023-07-02T10:30:09;21.40;96.10
33139;DHT22;19501;50.948;5.316;2023-07-02T10:32:35;21.00;96.30
33139;DHT22;19501;50.948;5.316;2023-07-02T10:35:17;20.90;97.00
33139;DHT22;19501;50.948;5.316;2023-07-02T10:37:43;20.80;97.40
33139;DHT22;19501;50.948;5.316;2023-07-02T10:40:09;21.00;98.10
33139;DHT22;19501;50.948;5.316;2023-07-02T10:45:11;21.30;98.60
33139;DHT22;19501;50.948;5.316;2023-07-02T10:47:42;21.10;99.00
33139;DHT22;19501;50.948;5.316;2023-07-02T10:50:20;21.00;97.90
33139;DHT22;19501;50.948;5.316;2023-07-02T10:52:47;21.20;98.90
33139;DHT22;19501;50.948;5.316;2023-07-02T10:55:23;20.90;98.60
33139;DHT22;19501;50.948;5.316;2023-07-02T10:57:50;20.80;99.90
33139;DHT22;19501;50.948;5.316;2023-07-02T11:00:18;20.90;99.90
33139;DHT22;19501;50.948;5.316;2023-07-02T11:02:44;21.50;99.90
33139;DHT22;19501;50.948;5.316;2023-07-02T11:05:09;22.20;98.50
33139;DHT22;19501;50.948;5.316;2023-07-02T11:07:40;22.20;97.40
33139;DHT22;19501;50.948;5.316;2023-07-02T11:10:07;21.90;97.10
33139;DHT22;19501;50.948;5.316;2023-07-02T11:12:32;21.80;96.80
33139;DHT22;19501;50.948;5.316;2023-07-02T11:15:15;21.80;98.60
33139;DHT22;19501;50.948;5.316;2023-07-02T11:17:41;22.10;99.90
33139;DHT22;19501;50.948;5.316;2023-07-02T11:20:11;22.50;98.00
33139;DHT22;19501;50.948;5.316;2023-07-02T11:22:38;22.10;97.30
33139;DHT22;19501;50.948;5.316;2023-07-02T11:25:18;21.80;98.00
33139;DHT22;19501;50.948;5.316;2023-07-02T11:27:44;21.80;97.70
33139;DHT22;19501;50.948;5.316;2023-07-02T11:30:11;21.60;98.80
33139;DHT22;19501;50.948;5.316;2023-07-02T11:32:49;21.70;98.30
33139;DHT22;19501;50.948;5.316;2023-07-02T11:35:15;21.60;97.30
33139;DHT22;19501;50.948;5.316;2023-07-02T11:37:42;21.60;97.10
33139;DHT22;19501;50.948;5.316;2023-07-02T11:40:08;21.60;98.00
33139;DHT22;19501;50.948;5.316;2023-07-02T11:42:34;21.60;98.60
33139;DHT22;19501;50.948;5.316;2023-07-02T11:44:59;21.60;98.50
33139;DHT22;19501;50.948;5.316;2023-07-02T11:47:25;21.60;98.30
33139;DHT22;19501;50.948;5.316;2023-07-02T11:49:52;21.80;96.30
33139;DHT22;19501;50.948;5.316;2023-07-02T11:52:18;22.20;98.00
33139;DHT22;19501;50.948;5.316;2023-07-02T11:54:44;22.30;97.20
33139;DHT22;19501;50.948;5.316;2023-07-02T11:57:11;22.80;96.20
33139;DHT22;19501;50.948;5.316;2023-07-02T11:59:38;22.70;96.40
33139;DHT22;19501;50.948;5.316;2023-07-02T12:02:06;22.70;96.30
33139;DHT22;19501;50.948;5.316;2023-07-02T12:04:32;22.80;97.30
33139;DHT22;19501;50.948;5.316;2023-07-02T12:06:57;23.00;96.90
33139;DHT22;19501;50.948;5.316;2023-07-02T12:09:23;23.00;97.00
33139;DHT22;19501;50.948;5.316;2023-07-02T12:11:48;22.30;96.50
33139;DHT22;19501;50.948;5.316;2023-07-02T12:14:16;22.00;97.00
33139;DHT22;19501;50.948;5.316;2023-07-02T12:16:42;21.90;98.00
33139;DHT22;19501;50.948;5.316;2023-07-02T12:19:07;22.00;96.90
33139;DHT22;19501;50.948;5.316;2023-07-02T12:21:33;22.00;96.50
33139;DHT22;19501;50.948;5.316;2023-07-02T12:23:59;21.70;97.20
33139;DHT22;19501;50.948;5.316;2023-07-02T12:26:24;22.00;97.60
33139;DHT22;19501;50.948;5.316;2023-07-02T12:28:50;22.20;97.00
33139;DHT22;19501;50.948;5.316;2023-07-02T12:31:15;22.50;95.70
33139;DHT22;19501;50.948;5.316;2023-07-02T12:33:41;23.00;97.20
33139;DHT22;19501;50.948;5.316;2023-07-02T12:36:07;23.70;96.00
33139;DHT22;19501;50.948;5.316;2023-07-02T12:38:32;23.70;94.30
33139;DHT22;19501;50.948;5.316;2023-07-02T12:40:58;23.60;94.30
33139;DHT22;19501;50.948;5.316;2023-07-02T12:43:26;23.20;92.90
33139;DHT22;19501;50.948;5.316;2023-07-02T12:45:51;23.50;93.30
33139;DHT22;19501;50.948;5.316;2023-07-02T12:48:17;23.80;93.70
33139;DHT22;19501;50.948;5.316;2023-07-02T12:50:53;23.90;94.00
33139;DHT22;19501;50.948;5.316;2023-07-02T12:53:19;25.50;93.90
33139;DHT22;19501;50.948;5.316;2023-07-02T12:55:45;25.50;92.20
33139;DHT22;19501;50.948;5.316;2023-07-02T12:58:11;24.80;92.30
33139;DHT22;19501;50.948;5.316;2023-07-02T13:00:36;24.00;93.60
33139;DHT22;19501;50.948;5.316;2023-07-02T13:03:02;23.70;92.80
33139;DHT22;19501;50.948;5.316;2023-07-02T13:05:28;23.30;93.80
33139;DHT22;19501;50.948;5.316;2023-07-02T13:07:54;23.20;93.20
33139;DHT22;19501;50.948;5.316;2023-07-02T13:10:19;23.40;93.40
33139;DHT22;19501;50.948;5.316;2023-07-02T13:12:45;24.60;93.40
33139;DHT22;19501;50.948;5.316;2023-07-02T13:15:10;25.30;92.10
33139;DHT22;19501;50.948;5.316;2023-07-02T13:17:38;25.70;90.60
33139;DHT22;19501;50.948;5.316;2023-07-02T13:20:04;25.90;91.10
33139;DHT22;19501;50.948;5.316;2023-07-02T13:22:29;26.60;89.90
33139;DHT22;19501;50.948;5.316;2023-07-02T13:24:55;26.10;90.00
33139;DHT22;19501;50.948;5.316;2023-07-02T13:27:21;26.20;90.40
33139;DHT22;19501;50.948;5.316;2023-07-02T13:29:46;25.80;88.40
33139;DHT22;19501;50.948;5.316;2023-07-02T13:32:12;26.10;90.10
33139;DHT22;19501;50.948;5.316;2023-07-02T13:34:37;26.10;85.30
33139;DHT22;19501;50.948;5.316;2023-07-02T13:37:03;25.70;87.40
33139;DHT22;19501;50.948;5.316;2023-07-02T13:39:30;25.20;87.20
33139;DHT22;19501;50.948;5.316;2023-07-02T13:41:56;25.60;87.80
33139;DHT22;19501;50.948;5.316;2023-07-02T13:44:22;26.50;87.80
33139;DHT22;19501;50.948;5.316;2023-07-02T13:46:48;26.40;84.00
33139;DHT22;19501;50.948;5.316;2023-07-02T13:49:14;25.80;85.80
33139;DHT22;19501;50.948;5.316;2023-07-02T13:51:40;25.10;87.20
33139;DHT22;19501;50.948;5.316;2023-07-02T13:54:06;24.60;87.90
33139;DHT22;19501;50.948;5.316;2023-07-02T13:56:33;25.10;88.90
33139;DHT22;19501;50.948;5.316;2023-07-02T13:59:00;25.70;89.10
33139;DHT22;19501;50.948;5.316;2023-07-02T14:01:26;26.70;85.20
33139;DHT22;19501;50.948;5.316;2023-07-02T14:03:52;27.20;85.60
33139;DHT22;19501;50.948;5.316;2023-07-02T14:06:20;26.70;84.70
33139;DHT22;19501;50.948;5.316;2023-07-02T14:08:45;26.00;84.50
33139;DHT22;19501;50.948;5.316;2023-07-02T14:11:11;25.30;88.60
33139;DHT22;19501;50.948;5.316;2023-07-02T14:13:36;25.40;86.30
33139;DHT22;19501;50.948;5.316;2023-07-02T14:16:02;25.50;86.40
33139;DHT22;19501;50.948;5.316;2023-07-02T14:18:28;25.20;84.50
33139;DHT22;19501;50.948;5.316;2023-07-02T14:20:54;24.90;86.40
33139;DHT22;19501;50.948;5.316;2023-07-02T14:23:19;24.70;85.70
33139;DHT22;19501;50.948;5.316;2023-07-02T14:25:45;24.30;87.00
33139;DHT22;19501;50.948;5.316;2023-07-02T14:28:10;24.10;88.50
33139;DHT22;19501;50.948;5.316;2023-07-02T14:30:36;24.20;90.30
33139;DHT22;19501;50.948;5.316;2023-07-02T14:33:02;23.90;89.60
33139;DHT22;19501;50.948;5.316;2023-07-02T14:35:28;24.20;88.80
33139;DHT22;19501;50.948;5.316;2023-07-02T14:37:56;24.80;86.80
33139;DHT22;19501;50.948;5.316;2023-07-02T14:40:22;24.70;86.70
33139;DHT22;19501;50.948;5.316;2023-07-02T14:42:48;24.90;86.70
33139;DHT22;19501;50.948;5.316;2023-07-02T14:45:13;24.90;88.90
33139;DHT22;19501;50.948;5.316;2023-07-02T14:47:39;25.10;87.10
33139;DHT22;19501;50.948;5.316;2023-07-02T14:50:05;25.10;88.70
33139;DHT22;19501;50.948;5.316;2023-07-02T14:52:31;25.40;85.80
33139;DHT22;19501;50.948;5.316;2023-07-02T14:54:59;25.10;87.00
33139;DHT22;19501;50.948;5.316;2023-07-02T14:57:30;24.90;90.00
33139;DHT22;19501;50.948;5.316;2023-07-02T14:59:55;24.90;86.80
33139;DHT22;19501;50.948;5.316;2023-07-02T15:02:22;25.10;87.60
33139;DHT22;19501;50.948;5.316;2023-07-02T15:04:47;25.10;87.60
33139;DHT22;19501;50.948;5.316;2023-07-02T15:07:13;25.10;85.80
33139;DHT22;19501;50.948;5.316;2023-07-02T15:09:39;24.70;86.00
33139;DHT22;19501;50.948;5.316;2023-07-02T15:12:04;24.50;87.60
33139;DHT22;19501;50.948;5.316;2023-07-02T15:14:30;24.30;88.10
33139;DHT22;19501;50.948;5.316;2023-07-02T15:16:55;24.40;88.70
33139;DHT22;19501;50.948;5.316;2023-07-02T15:19:21;24.50;88.70
33139;DHT22;19501;50.948;5.316;2023-07-02T15:21:47;24.50;90.70
33139;DHT22;19501;50.948;5.316;2023-07-02T15:24:13;24.80;86.80
33139;DHT22;19501;50.948;5.316;2023-07-02T15:26:39;24.70;87.00
33139;DHT22;19501;50.948;5.316;2023-07-02T15:29:05;24.40;87.10
33139;DHT22;19501;50.948;5.316;2023-07-02T15:31:31;24.20;89.70
33139;DHT22;19501;50.948;5.316;2023-07-02T15:33:57;24.30;89.00
33139;DHT22;19501;50.948;5.316;2023-07-02T15:36:22;24.10;88.20
33139;DHT22;19501;50.948;5.316;2023-07-02T15:38:49;24.50;89.10